createdAt,value
2018-06-01T00:00:25.398Z,54.21
2018-06-01T00:01:35.142Z,53.91
2018-06-01T00:02:45.154Z,53.91
2018-06-01T00:03:54.910Z,53.72
2018-06-01T00:05:04.927Z,54.3
2018-06-01T00:06:14.679Z,53.34
2018-06-01T00:07:24.701Z,53.44
2018-06-01T00:08:34.720Z,54.01
2018-06-01T00:09:44.743Z,54.97
2018-06-01T00:10:54.766Z,54.97
2018-06-01T00:12:04.526Z,55.93
2018-06-01T00:13:14.549Z,55.55
2018-06-01T00:14:24.292Z,55.35
2018-06-01T00:15:34.047Z,55.55
2018-06-01T00:16:43.534Z,55.55
2018-06-01T00:17:53.542Z,55.74
2018-06-01T00:19:03.298Z,55.64
2018-06-01T00:20:12.508Z,56.48
2018-06-01T00:21:22.253Z,56.48
2018-06-01T00:22:31.739Z,55.9
2018-06-01T00:23:41.771Z,55.13
2018-06-01T00:24:51.787Z,55.52
2018-06-01T00:26:01.802Z,55.33
2018-06-01T00:27:11.812Z,55.52
2018-06-01T00:28:21.557Z,55.04
2018-06-01T00:29:31.573Z,55.9
2018-06-01T00:30:41.586Z,55.71
2018-06-01T00:31:51.337Z,56.38
2018-06-01T00:33:00.823Z,56.57
2018-06-01T00:34:10.577Z,55.23
2018-06-01T00:35:20.622Z,55.9
2018-06-01T00:36:30.119Z,55.62
2018-06-01T00:37:40.142Z,55.13
2018-06-01T00:38:50.174Z,55.9
2018-06-01T00:40:00.193Z,56.57
2018-06-01T00:41:09.942Z,55.8
2018-06-01T00:42:19.433Z,55.13
2018-06-01T00:43:28.913Z,55.33
2018-06-01T00:44:38.981Z,55.52
2018-06-01T00:45:48.463Z,56
2018-06-01T00:46:58.481Z,56
2018-06-01T00:48:07.971Z,56.57
2018-06-01T00:49:17.720Z,55.62
2018-06-01T00:50:27.476Z,57.21
2018-06-01T00:51:36.958Z,57.34
2018-06-01T00:52:46.981Z,57.98
2018-06-01T00:53:57.001Z,57.21
2018-06-01T00:55:06.756Z,57.21
2018-06-01T00:56:16.508Z,56.54
2018-06-01T00:57:26.263Z,56.54
2018-06-01T00:58:36.276Z,57.12
2018-06-01T00:59:46.023Z,57.79
2018-06-01T01:00:55.245Z,57.89
2018-06-01T01:02:04.993Z,58.75
2018-06-01T01:03:14.742Z,58.08
2018-06-01T01:04:24.488Z,57.89
2018-06-01T01:05:34.239Z,57.19
2018-06-01T01:06:43.988Z,57.41
2018-06-01T01:07:53.740Z,57.31
2018-06-01T01:09:03.491Z,58.08
2018-06-01T01:10:13.511Z,57.38
2018-06-01T01:11:23.526Z,57.21
2018-06-01T01:12:33.286Z,57.48
2018-06-01T01:13:43.309Z,56.71
2018-06-01T01:14:52.795Z,57.31
2018-06-01T01:16:02.440Z,56.45
2018-06-01T01:17:12.187Z,56.74
2018-06-01T01:18:22.198Z,56.64
2018-06-01T01:19:32.228Z,56.45
2018-06-01T01:20:41.982Z,56.42
2018-06-01T01:21:51.570Z,55.87
2018-06-01T01:23:01.585Z,56.35
2018-06-01T01:24:11.600Z,56.45
2018-06-01T01:25:21.613Z,55.58
2018-06-01T01:26:31.632Z,56.45
2018-06-01T01:27:41.111Z,56.26
2018-06-01T01:28:50.856Z,56.26
2018-06-01T01:30:00.973Z,55.97
2018-06-01T01:31:10.452Z,55.78
2018-06-01T01:32:20.472Z,56.16
2018-06-01T01:33:30.489Z,56.45
2018-06-01T01:34:40.540Z,56.26
2018-06-01T01:35:50.566Z,56.54
2018-06-01T01:37:00.583Z,56.64
2018-06-01T01:38:10.330Z,57.98
2018-06-01T01:39:19.829Z,58.27
2018-06-01T01:40:29.844Z,57.95
2018-06-01T01:41:39.600Z,57.38
2018-06-01T01:42:49.348Z,56.81
2018-06-01T01:43:59.093Z,56.52
2018-06-01T01:45:09.151Z,56.71
2018-06-01T01:46:18.899Z,56.71
2018-06-01T01:47:28.919Z,56.23
2018-06-01T01:48:38.938Z,57.28
2018-06-01T01:49:48.962Z,57.48
2018-06-01T01:50:58.986Z,56.42
2018-06-01T01:52:08.474Z,56.42
2018-06-01T01:53:18.224Z,56.52
2018-06-01T01:54:28.242Z,58.91
2018-06-01T01:55:37.984Z,57.76
2018-06-01T01:56:47.997Z,57.95
2018-06-01T01:57:57.744Z,56.61
2018-06-01T01:59:07.230Z,56.71
2018-06-01T02:00:16.982Z,56.23
2018-06-01T02:01:26.732Z,56.99
2018-06-01T02:02:36.802Z,56.81
2018-06-01T02:03:46.812Z,57.57
2018-06-01T02:04:56.559Z,57.57
2018-06-01T02:06:06.308Z,57.48
2018-06-01T02:07:16.068Z,57.48
2018-06-01T02:08:26.123Z,57.57
2018-06-01T02:09:36.153Z,57.86
2018-06-01T02:10:45.899Z,57.86
2018-06-01T02:11:55.386Z,57.86
2018-06-01T02:13:05.400Z,57.86
2018-06-01T02:14:14.935Z,58.15
2018-06-01T02:15:24.951Z,58.62
2018-06-01T02:16:34.964Z,58.79
2018-06-01T02:17:44.717Z,59.3
2018-06-01T02:18:54.731Z,58.62
2018-06-01T02:20:04.485Z,58.15
2018-06-01T02:21:14.501Z,58.79
2018-06-01T02:22:24.514Z,58.4
2018-06-01T02:23:34.526Z,58.02
2018-06-01T02:24:44.275Z,58.59
2018-06-01T02:25:54.284Z,58.5
2018-06-01T02:27:03.765Z,58.88
2018-06-01T02:28:13.515Z,58.98
2018-06-01T02:29:23.266Z,58.98
2018-06-01T02:30:32.485Z,58.98
2018-06-01T02:31:41.981Z,58.69
2018-06-01T02:32:51.745Z,58.88
2018-06-01T02:34:01.785Z,58.12
2018-06-01T02:35:11.264Z,58.12
2018-06-01T02:36:21.278Z,58.79
2018-06-01T02:37:30.761Z,58.88
2018-06-01T02:38:40.788Z,59.17
2018-06-01T02:39:50.285Z,59.27
2018-06-01T02:41:00.307Z,59.08
2018-06-01T02:42:10.064Z,59.17
2018-06-01T02:43:20.091Z,59.27
2018-06-01T02:44:30.117Z,58.59
2018-06-01T02:45:39.877Z,58.69
2018-06-01T02:46:49.912Z,58.98
2018-06-01T02:47:59.658Z,58.88
2018-06-01T02:49:08.884Z,59.01
2018-06-01T02:50:18.375Z,59.11
2018-06-01T02:51:28.393Z,59.11
2018-06-01T02:52:38.178Z,59.01
2018-06-01T02:53:47.930Z,59.01
2018-06-01T02:54:57.677Z,59.68
2018-06-01T02:56:07.435Z,60.35
2018-06-01T02:57:17.460Z,60.35
2018-06-01T02:58:27.213Z,60.83
2018-06-01T02:59:36.968Z,60.54
2018-06-01T03:03:27.393Z,61.31
2018-06-01T03:04:37.148Z,60.44
2018-06-01T03:05:46.911Z,60.25
2018-06-01T03:06:56.663Z,60.25
2018-06-01T03:08:06.426Z,59.97
2018-06-01T03:09:16.457Z,60.06
2018-06-01T03:10:26.490Z,59.97
2018-06-01T03:11:36.244Z,60.54
2018-06-01T03:12:45.730Z,60.54
2018-06-01T03:13:55.482Z,62.26
2018-06-01T03:15:05.233Z,61.98
2018-06-01T03:16:15.262Z,62.43
2018-06-01T03:17:25.277Z,62.17
2018-06-01T03:18:35.300Z,62.26
2018-06-01T03:19:45.054Z,62.23
2018-06-01T03:20:54.810Z,62.62
2018-06-01T03:22:04.562Z,62.93
2018-06-01T03:23:14.578Z,63.39
2018-06-01T03:24:24.599Z,63.13
2018-06-01T03:25:34.076Z,63.51
2018-06-01T03:26:44.094Z,63.42
2018-06-01T03:27:53.846Z,63.22
2018-06-01T03:29:03.866Z,62.84
2018-06-01T03:30:13.884Z,62.84
2018-06-01T03:31:23.916Z,62.93
2018-06-01T03:32:33.678Z,63.8
2018-06-01T03:33:43.428Z,63.22
2018-06-01T03:34:53.175Z,63.03
2018-06-01T03:36:02.653Z,63.89
2018-06-01T03:37:12.132Z,63.6
2018-06-01T03:38:22.151Z,63.76
2018-06-01T03:39:32.167Z,63.67
2018-06-01T03:40:41.909Z,63.67
2018-06-01T03:41:51.662Z,63.7
2018-06-01T03:43:01.147Z,63.7
2018-06-01T03:44:11.165Z,64.05
2018-06-01T03:45:20.909Z,64.47
2018-06-01T03:46:30.668Z,65.05
2018-06-01T03:47:40.699Z,65.05
2018-06-01T03:48:50.735Z,64.76
2018-06-01T03:50:00.751Z,64.95
2018-06-01T03:51:10.235Z,65.52
2018-06-01T03:52:19.715Z,65.81
2018-06-01T03:53:29.729Z,65.81
2018-06-01T03:54:39.478Z,66.48
2018-06-01T03:55:49.499Z,67.34
2018-06-01T03:56:59.262Z,68.49
2018-06-01T03:58:09.277Z,68.78
2018-06-01T03:59:19.307Z,67.72
2018-06-01T04:00:28.521Z,67.25
2018-06-01T04:01:38.590Z,66.77
2018-06-01T04:02:48.337Z,66.48
2018-06-01T04:03:58.225Z,66.29
2018-06-01T04:05:08.248Z,65.91
2018-06-01T04:06:18.273Z,65.62
2018-06-01T04:07:28.289Z,65.23
2018-06-01T04:08:38.315Z,66.58
2018-06-01T04:09:48.076Z,66.58
2018-06-01T04:10:57.830Z,65.33
2018-06-01T04:12:07.311Z,65.05
2018-06-01T04:13:16.798Z,64.28
2018-06-01T04:14:26.830Z,64.47
2018-06-01T04:15:36.581Z,63.99
2018-06-01T04:16:46.605Z,64.18
2018-06-01T04:17:56.620Z,64.37
2018-06-01T04:19:06.372Z,63.8
2018-06-01T04:20:16.385Z,63.7
2018-06-01T04:21:26.418Z,63.6
2018-06-01T04:22:36.436Z,64.31
2018-06-01T04:23:46.180Z,64.12
2018-06-01T04:24:56.301Z,64.12
2018-06-01T04:26:06.061Z,64.89
2018-06-01T04:27:15.812Z,65.36
2018-06-01T04:28:25.825Z,65.84
2018-06-01T04:29:35.569Z,65.55
2018-06-01T04:30:45.587Z,65.36
2018-06-01T04:31:55.605Z,64.5
2018-06-01T04:33:05.626Z,64.69
2018-06-01T04:34:15.380Z,64.98
2018-06-01T04:35:25.130Z,65.26
2018-06-01T04:36:34.928Z,65.36
2018-06-01T04:37:44.944Z,64.79
2018-06-01T04:38:54.690Z,64.31
2018-06-01T04:40:03.902Z,64.02
2018-06-01T04:41:13.927Z,64.12
2018-06-01T04:42:23.697Z,64.59
2018-06-01T04:43:33.455Z,64.98
2018-06-01T04:44:43.476Z,64.59
2018-06-01T04:45:53.239Z,64.89
2018-06-01T04:47:02.986Z,64.31
2018-06-01T04:48:12.736Z,64.69
2018-06-01T04:49:22.864Z,64.89
2018-06-01T04:50:32.893Z,65.75
2018-06-01T04:51:42.912Z,66.99
2018-06-01T04:52:52.940Z,65.46
2018-06-01T04:54:02.695Z,66.8
2018-06-01T04:55:12.180Z,66.8
2018-06-01T04:56:21.931Z,66.13
2018-06-01T04:57:31.681Z,65.26
2018-06-01T04:58:41.429Z,65.75
2018-06-01T04:59:51.177Z,66.13
2018-06-01T05:01:01.192Z,65.17
2018-06-01T05:02:10.937Z,64.89
2018-06-01T05:03:20.695Z,64.05
2018-06-01T05:04:30.739Z,63.45
2018-06-01T05:05:40.752Z,63.67
2018-06-01T05:06:50.772Z,63.86
2018-06-01T05:08:00.798Z,63.86
2018-06-01T05:09:10.552Z,63.09
2018-06-01T05:10:20.569Z,62.62
2018-06-01T05:11:30.593Z,62.13
2018-06-01T05:12:40.611Z,62.04
2018-06-01T05:13:50.094Z,60.89
2018-06-01T05:15:00.124Z,60.6
2018-06-01T05:16:09.338Z,60.72
2018-06-01T05:17:19.500Z,60.79
2018-06-01T05:18:29.520Z,60.63
2018-06-01T05:19:39.278Z,60.92
2018-06-01T05:20:49.297Z,60.63
2018-06-01T05:21:58.775Z,61.21
2018-06-01T05:23:08.530Z,61.69
2018-06-01T05:24:18.277Z,61.4
2018-06-01T05:25:28.295Z,61.78
2018-06-01T05:26:38.046Z,61.69
2018-06-01T05:27:47.800Z,60.63
2018-06-01T05:28:57.813Z,61.3
2018-06-01T05:30:07.838Z,61.69
2018-06-01T05:31:17.322Z,61.11
2018-06-01T05:32:27.342Z,61.88
2018-06-01T05:33:36.823Z,60.72
2018-06-01T05:34:46.841Z,60.85
2018-06-01T05:35:56.602Z,60.28
2018-06-01T05:37:06.089Z,59.22
2018-06-01T05:38:16.102Z,59.51
2018-06-01T05:39:25.866Z,59.41
2018-06-01T05:40:35.343Z,59.51
2018-06-01T05:41:45.368Z,59.61
2018-06-01T05:42:55.387Z,59.32
2018-06-01T05:44:05.399Z,58.55
2018-06-01T05:45:15.154Z,58.45
2018-06-01T05:46:24.844Z,58.26
2018-06-01T05:47:34.595Z,58.64
2018-06-01T05:48:44.616Z,58.55
2018-06-01T05:49:54.632Z,58.74
2018-06-01T05:51:04.383Z,57.68
2018-06-01T05:52:14.129Z,57.52
2018-06-01T05:53:23.883Z,57.33
2018-06-01T05:54:33.128Z,57.62
2018-06-01T05:55:43.163Z,57.9
2018-06-01T05:56:52.907Z,57.43
2018-06-01T05:58:02.655Z,57.43
2018-06-01T05:59:12.679Z,57.43
2018-06-01T06:00:22.435Z,57.62
2018-06-01T06:01:32.456Z,57.33
2018-06-01T06:02:42.208Z,58
2018-06-01T06:03:52.013Z,58
2018-06-01T06:05:01.765Z,58.45
2018-06-01T06:06:11.783Z,57.97
2018-06-01T06:07:21.823Z,58.64
2018-06-01T06:08:31.852Z,58.74
2018-06-01T06:09:41.079Z,58.36
2018-06-01T06:10:51.103Z,58.67
2018-06-01T06:12:01.123Z,58.55
2018-06-01T06:13:10.611Z,59.34
2018-06-01T06:14:20.787Z,58.77
2018-06-01T06:15:30.546Z,59.34
2018-06-01T06:16:40.298Z,58.77
2018-06-01T06:17:50.327Z,58.87
2018-06-01T06:19:00.425Z,58.58
2018-06-01T06:20:09.912Z,58
2018-06-01T06:21:20.276Z,58
2018-06-01T06:22:30.024Z,58.39
2018-06-01T06:23:40.051Z,58.48
2018-06-01T06:24:50.075Z,58.2
2018-06-01T06:26:00.091Z,58.8
2018-06-01T06:27:09.903Z,58.03
2018-06-01T06:28:19.944Z,58.03
2018-06-01T06:29:29.967Z,58.13
2018-06-01T06:30:39.450Z,57.65
2018-06-01T06:31:49.255Z,56.98
2018-06-01T06:32:59.272Z,56.4
2018-06-01T06:34:09.307Z,57.07
2018-06-01T06:35:19.069Z,57.36
2018-06-01T06:36:29.105Z,57.36
2018-06-01T06:37:39.164Z,57.39
2018-06-01T06:38:48.829Z,56.14
2018-06-01T06:39:58.584Z,56.62
2018-06-01T06:41:08.357Z,56.33
2018-06-01T06:42:17.854Z,56.04
2018-06-01T06:43:27.880Z,56.43
2018-06-01T06:44:37.906Z,55.37
2018-06-01T06:45:47.659Z,55.66
2018-06-01T06:46:57.417Z,55.27
2018-06-01T06:48:07.436Z,54.69
2018-06-01T06:49:17.188Z,54.5
2018-06-01T06:50:26.946Z,55.49
2018-06-01T06:51:36.701Z,57.99
2018-06-01T06:52:46.729Z,57.42
2018-06-01T06:53:56.477Z,56.74
2018-06-01T06:55:06.610Z,57.6
2018-06-01T06:56:16.800Z,56.93
2018-06-01T06:57:26.830Z,58.57
2018-06-01T06:58:36.854Z,58.28
2018-06-01T06:59:46.877Z,57.51
2018-06-01T07:00:56.632Z,57.6
2018-06-01T07:02:06.119Z,57.6
2018-06-01T07:03:15.880Z,56.65
2018-06-01T07:04:25.897Z,57.6
2018-06-01T07:05:35.917Z,61.16
2018-06-01T07:06:45.945Z,59.72
2018-06-01T07:07:55.963Z,59.05
2018-06-01T07:09:05.482Z,58.67
2018-06-01T07:10:14.968Z,59.92
2018-06-01T07:11:24.984Z,59.92
2018-06-01T07:12:34.737Z,60.49
2018-06-01T07:13:44.499Z,60.3
2018-06-01T07:14:54.249Z,58.79
2018-06-01T07:16:03.731Z,58.31
2018-06-01T07:17:13.482Z,58.28
2018-06-01T07:18:22.967Z,59.15
2018-06-01T07:19:32.738Z,59.44
2018-06-01T07:20:42.807Z,59.53
2018-06-01T07:21:52.635Z,58.76
2018-06-01T07:23:02.667Z,60.33
2018-06-01T07:24:12.417Z,60.52
2018-06-01T07:25:22.505Z,59.08
2018-06-01T07:26:32.256Z,59.94
2018-06-01T07:27:42.366Z,58.12
2018-06-01T07:28:52.158Z,59.17
2018-06-01T07:30:01.377Z,58.4
2018-06-01T07:31:11.398Z,58.22
2018-06-01T07:32:21.434Z,58.22
2018-06-01T07:33:31.188Z,57.54
2018-06-01T07:34:41.214Z,57.54
2018-06-01T07:35:51.251Z,57.25
2018-06-01T07:37:01.284Z,57.35
2018-06-01T07:38:11.048Z,57.51
2018-06-01T07:39:20.807Z,58.12
2018-06-01T07:40:30.555Z,58.22
2018-06-01T07:41:40.579Z,56.67
2018-06-01T07:42:50.599Z,59.47
2018-06-01T07:44:00.616Z,59.08
2018-06-01T07:45:09.853Z,58.22
2018-06-01T07:46:19.871Z,57.25
2018-06-01T07:47:29.896Z,58.31
2018-06-01T07:48:39.722Z,56.77
2018-06-01T07:49:49.482Z,57.35
2018-06-01T07:50:59.494Z,57.15
2018-06-01T07:52:09.041Z,57.25
2018-06-01T07:53:18.795Z,57.15
2018-06-01T07:54:28.580Z,57.15
2018-06-01T07:55:38.444Z,56.77
2018-06-01T07:56:48.467Z,56.87
2018-06-01T07:57:58.487Z,55.83
2018-06-01T07:59:08.506Z,55.55
2018-06-01T08:00:18.257Z,54.97
2018-06-01T08:01:28.275Z,54
2018-06-01T08:02:38.345Z,53.65
2018-06-01T08:03:48.092Z,54.03
2018-06-01T08:04:58.108Z,52.69
2018-06-01T08:06:07.900Z,52.2
2018-06-01T08:07:17.922Z,53.17
2018-06-01T08:08:27.423Z,51.62
2018-06-01T08:09:37.193Z,50.01
2018-06-01T08:10:46.938Z,50.95
2018-06-01T08:11:57.107Z,50.09
2018-06-01T08:13:06.322Z,50.49
2018-06-01T08:14:16.070Z,48.86
2018-06-01T08:15:26.107Z,49.05
2018-06-01T08:16:35.859Z,49.53
2018-06-01T08:17:45.881Z,48.08
2018-06-01T08:18:55.635Z,48.86
2018-06-01T08:20:05.411Z,48.66
2018-06-01T08:21:15.185Z,48.66
2018-06-01T08:22:25.208Z,48.38
2018-06-01T08:23:35.293Z,47.72
2018-06-01T08:24:45.324Z,47.44
2018-06-01T08:25:55.075Z,47.72
2018-06-01T08:27:05.014Z,47.53
2018-06-01T08:28:15.069Z,46.88
2018-06-01T08:29:25.106Z,45.62
2018-06-01T08:30:35.165Z,45.34
2018-06-01T08:31:45.188Z,45.34
2018-06-01T08:32:54.938Z,45.04
2018-06-01T08:34:04.694Z,45.55
2018-06-01T08:35:14.182Z,45.82
2018-06-01T08:36:23.942Z,45.94
2018-06-01T08:37:33.698Z,45.94
2018-06-01T08:38:43.718Z,45.26
2018-06-01T08:39:53.482Z,45.45
2018-06-01T08:41:03.281Z,45.07
2018-06-01T08:42:12.497Z,45.38
2018-06-01T08:43:22.532Z,45.38
2018-06-01T08:44:32.571Z,45.38
2018-06-01T08:45:42.591Z,44.6
2018-06-01T08:46:52.608Z,45.18
2018-06-01T08:48:02.091Z,44.7
2018-06-01T08:49:12.115Z,44.42
2018-06-01T08:50:21.602Z,45.4
2018-06-01T08:51:31.633Z,44.73
2018-06-01T08:52:41.654Z,44.05
2018-06-01T08:53:51.672Z,43.85
2018-06-01T08:55:01.694Z,44.34
2018-06-01T08:56:11.721Z,43.76
2018-06-01T08:57:21.748Z,43.66
2018-06-01T08:58:31.765Z,43.85
2018-06-01T08:59:41.807Z,43.78
2018-06-01T09:00:51.836Z,43.78
2018-06-01T09:02:01.596Z,44.07
2018-06-01T09:03:11.346Z,44.56
2018-06-01T09:04:21.365Z,44.17
2018-06-01T09:05:30.855Z,43.98
2018-06-01T09:06:40.610Z,43.61
2018-06-01T09:07:50.633Z,44.65
2018-06-01T09:09:00.116Z,44.57
2018-06-01T09:10:09.692Z,45.25
2018-06-01T09:11:19.817Z,43.51
2018-06-01T09:12:29.568Z,43.99
2018-06-01T09:13:39.324Z,43.99
2018-06-01T09:14:49.075Z,44.67
2018-06-01T09:15:58.835Z,43.99
2018-06-01T09:17:08.332Z,44.57
2018-06-01T09:18:18.354Z,44.38
2018-06-01T09:19:28.378Z,43.9
2018-06-01T09:20:38.139Z,43.9
2018-06-01T09:21:48.165Z,44.79
2018-06-01T09:22:58.184Z,43.61
2018-06-01T09:24:07.671Z,42.47
2018-06-01T09:25:17.153Z,42.66
2018-06-01T09:26:26.916Z,44.02
2018-06-01T09:27:36.553Z,43.82
2018-06-01T09:28:46.315Z,43.73
2018-06-01T09:29:56.076Z,42.96
2018-06-01T09:31:05.564Z,42.57
2018-06-01T09:32:15.598Z,42.57
2018-06-01T09:33:25.640Z,42.08
2018-06-01T09:34:35.131Z,41.91
2018-06-01T09:35:45.148Z,41.91
2018-06-01T09:36:54.899Z,41.62
2018-06-01T09:38:04.954Z,41.62
2018-06-01T09:39:15.031Z,41.24
2018-06-01T09:40:25.049Z,41.04
2018-06-01T09:41:35.072Z,41.42
2018-06-01T09:42:44.830Z,41.33
2018-06-01T09:43:54.317Z,40.84
2018-06-01T09:45:04.070Z,40.67
2018-06-01T09:46:14.122Z,40.09
2018-06-01T09:47:23.877Z,40.58
2018-06-01T09:48:33.741Z,40.19
2018-06-01T09:49:43.498Z,40.19
2018-06-01T09:50:53.270Z,39.9
2018-06-01T09:52:03.294Z,39.14
2018-06-01T09:53:12.825Z,39.62
2018-06-01T09:54:22.583Z,39.43
2018-06-01T09:55:32.779Z,39.53
2018-06-01T09:56:42.817Z,38.58
2018-06-01T09:57:52.847Z,39.26
2018-06-01T09:59:02.342Z,39.14
2018-06-01T10:00:12.370Z,38.87
2018-06-01T10:01:21.591Z,38.78
2018-06-01T10:02:31.356Z,39.06
2018-06-01T10:03:41.166Z,38.78
2018-06-01T10:04:50.919Z,38.19
2018-06-01T10:06:00.413Z,38.58
2018-06-01T10:07:10.171Z,38.12
2018-06-01T10:08:20.191Z,37.73
2018-06-01T10:09:30.219Z,37.53
2018-06-01T10:10:39.975Z,37.63
2018-06-01T10:11:49.997Z,37.34
2018-06-01T10:13:00.022Z,37.05
2018-06-01T10:14:10.044Z,36.95
2018-06-01T10:15:19.801Z,37.26
2018-06-01T10:16:29.554Z,37.07
2018-06-01T10:17:39.578Z,36.97
2018-06-01T10:18:49.072Z,36.38
2018-06-01T10:19:59.093Z,36.69
2018-06-01T10:21:09.119Z,36.68
2018-06-01T10:22:18.879Z,36.02
2018-06-01T10:23:28.903Z,36.11
2018-06-01T10:24:38.655Z,36.11
2018-06-01T10:25:48.680Z,35.05
2018-06-01T10:26:58.432Z,35.63
2018-06-01T10:28:08.191Z,35.63
2018-06-01T10:29:18.212Z,35.33
2018-06-01T10:30:27.994Z,36.69
2018-06-01T10:31:37.484Z,36.52
2018-06-01T10:32:47.557Z,34.77
2018-06-01T10:33:57.332Z,34.97
2018-06-01T10:35:07.088Z,35.25
2018-06-01T10:36:16.576Z,34.87
2018-06-01T10:37:26.647Z,34.87
2018-06-01T10:38:36.674Z,34.58
2018-06-01T10:39:46.436Z,33.7
2018-06-01T10:40:56.457Z,34.28
2018-06-01T10:42:05.943Z,34.87
2018-06-01T10:43:15.698Z,34.97
2018-06-01T10:44:25.196Z,33.99
2018-06-01T10:45:35.263Z,33.7
2018-06-01T10:46:45.282Z,34.19
2018-06-01T10:47:55.302Z,33.9
2018-06-01T10:49:05.325Z,34.58
2018-06-01T10:50:14.822Z,34.19
2018-06-01T10:51:24.583Z,33.7
2018-06-01T10:52:34.603Z,33.8
2018-06-01T10:53:44.630Z,34.19
2018-06-01T10:54:54.387Z,33.81
2018-06-01T10:56:03.878Z,34.69
2018-06-01T10:57:13.642Z,34.88
2018-06-01T10:58:23.669Z,34.3
2018-06-01T10:59:33.430Z,34.88
2018-06-01T11:00:43.607Z,34.59
2018-06-01T11:01:53.624Z,34.69
2018-06-01T11:03:03.382Z,33.33
2018-06-01T11:04:13.138Z,33.64
2018-06-01T11:05:22.889Z,33.81
2018-06-01T11:06:32.492Z,34.32
2018-06-01T11:07:41.991Z,32.18
2018-06-01T11:08:52.021Z,33.44
2018-06-01T11:10:02.055Z,33.44
2018-06-01T11:11:11.287Z,34.42
2018-06-01T11:12:21.329Z,32.86
2018-06-01T11:13:31.366Z,33.54
2018-06-01T11:14:41.446Z,33.44
2018-06-01T11:15:50.405Z,32.76
2018-06-01T11:17:00.430Z,32.28
2018-06-01T11:18:10.479Z,32.87
2018-06-01T11:19:20.508Z,32.47
2018-06-01T11:20:30.275Z,32.49
2018-06-01T11:21:39.565Z,32.78
2018-06-01T11:22:49.334Z,32.87
2018-06-01T11:23:59.092Z,33.17
2018-06-01T11:25:08.587Z,32.78
2018-06-01T11:26:18.084Z,31.9
2018-06-01T11:27:27.864Z,31.71
2018-06-01T11:28:37.894Z,32.11
2018-06-01T11:29:47.662Z,31.43
2018-06-01T11:30:57.422Z,31.16
2018-06-01T11:32:07.448Z,30.39
2018-06-01T11:33:16.956Z,31.76
2018-06-01T11:34:26.713Z,29.15
2018-06-01T11:35:36.772Z,29.75
2018-06-01T11:36:46.271Z,29.28
2018-06-01T11:37:56.023Z,27.94
2018-06-01T11:39:06.046Z,28.44
2018-06-01T11:40:15.279Z,27.97
2018-06-01T11:41:25.303Z,27.21
2018-06-01T11:42:35.061Z,25.95
2018-06-01T11:43:44.819Z,25.2
2018-06-01T11:44:54.852Z,24.53
2018-06-01T11:46:04.124Z,23.85
2018-06-01T11:47:13.616Z,23.19
2018-06-01T11:48:22.840Z,22.91
2018-06-01T11:49:32.607Z,22.92
2018-06-01T11:50:42.644Z,21.64
2018-06-01T11:51:52.410Z,21.26
2018-06-01T11:53:02.179Z,20.87
2018-06-01T11:54:12.222Z,20.18
2018-06-01T11:55:22.263Z,21.07
2018-06-01T11:56:32.041Z,19.42
2018-06-01T11:57:41.539Z,20.2
2018-06-01T11:58:51.041Z,20.21
2018-06-01T12:00:01.079Z,19.54
2018-06-01T12:01:10.848Z,19.15
2018-06-01T12:02:20.887Z,18.97
2018-06-01T12:03:30.689Z,18.68
2018-06-01T12:04:40.516Z,18.88
2018-06-01T12:05:50.550Z,18.2
2018-06-01T12:07:00.581Z,18.12
2018-06-01T12:08:10.083Z,17.73
2018-06-01T12:09:20.119Z,17.54
2018-06-01T12:10:30.152Z,16.85
2018-06-01T12:11:39.669Z,15.88
2018-06-01T12:12:49.436Z,16.86
2018-06-01T12:13:59.475Z,16.38
2018-06-01T12:15:09.517Z,16.3
2018-06-01T12:16:19.392Z,16.3
2018-06-01T12:17:29.493Z,16.21
2018-06-01T12:18:39.466Z,15.42
2018-06-01T12:19:49.513Z,15.13
2018-06-01T12:20:59.569Z,15.34
2018-06-01T12:22:09.649Z,15.14
2018-06-01T12:23:19.782Z,14.25
2018-06-01T12:24:29.908Z,14.56
2018-06-01T12:25:39.952Z,14.16
2018-06-01T12:26:49.991Z,13.37
2018-06-01T12:27:59.489Z,13.67
2018-06-01T12:29:09.648Z,13.17
2018-06-01T12:30:20.048Z,13.65
2018-06-01T12:31:29.545Z,12.74
2018-06-01T12:32:39.582Z,13.53
2018-06-01T12:33:49.772Z,13.12
2018-06-01T12:34:59.817Z,14
2018-06-01T12:36:09.320Z,13.89
2018-06-01T12:37:19.088Z,14.97
2018-06-01T12:38:29.175Z,15.45
2018-06-01T12:39:38.676Z,16.13
2018-06-01T12:40:48.445Z,16.81
2018-06-01T12:41:58.722Z,16.8
2018-06-01T12:43:07.967Z,16.78
2018-06-01T12:44:18.466Z,16.68
2018-06-01T12:45:27.972Z,16.57
2018-06-01T12:46:37.744Z,17.16
2018-06-01T12:47:47.244Z,18.92
2018-06-01T12:48:57.276Z,21.36
2018-06-01T12:50:06.772Z,21.42
2018-06-01T12:51:15.999Z,21.2
2018-06-01T12:52:25.769Z,22.86
2018-06-01T12:53:35.541Z,24.77
2018-06-01T12:54:45.565Z,23.77
2018-06-01T12:55:55.591Z,25.22
2018-06-01T12:57:05.622Z,26.27
2018-06-01T12:58:15.392Z,27.02
2018-06-01T12:59:25.427Z,26.82
2018-06-01T13:00:35.190Z,27.78
2018-06-01T13:01:44.418Z,27.78
2018-06-01T13:02:53.910Z,27.68
2018-06-01T13:04:03.675Z,27.68
2018-06-01T13:05:13.453Z,27.68
2018-06-01T13:06:23.481Z,27
2018-06-01T13:07:33.508Z,27.39
2018-06-01T13:08:43.531Z,28.25
2018-06-01T13:09:53.519Z,27.95
2018-06-01T13:11:03.011Z,28.15
2018-06-01T13:12:13.038Z,28.34
2018-06-01T13:13:23.073Z,28.34
2018-06-01T13:14:32.839Z,28.64
2018-06-01T13:15:42.605Z,28.74
2018-06-01T13:16:52.406Z,29.52
2018-06-01T13:18:02.456Z,29.13
2018-06-01T13:19:12.221Z,29.61
2018-06-01T13:20:21.988Z,29.99
2018-06-01T13:21:31.788Z,31.34
2018-06-01T13:22:41.809Z,32.29
2018-06-01T13:23:51.843Z,32.18
2018-06-01T13:25:01.334Z,32.67
2018-06-01T13:26:10.892Z,33.81
2018-06-01T13:27:20.390Z,33.7
2018-06-01T13:28:30.427Z,34.87
2018-06-01T13:29:39.919Z,35.53
2018-06-01T13:30:49.995Z,35.92
2018-06-01T13:31:59.215Z,37.26
2018-06-01T13:33:08.708Z,36.66
2018-06-01T13:34:18.470Z,36.66
2018-06-01T13:35:28.004Z,36.46
2018-06-01T13:36:37.754Z,38.6
2018-06-01T13:37:47.241Z,39.47
2018-06-01T13:38:57.047Z,40.81
2018-06-01T13:40:07.071Z,41.47
2018-06-01T13:41:17.094Z,42.61
2018-06-01T13:42:26.587Z,42.61
2018-06-01T13:43:36.077Z,45.61
2018-06-01T13:44:46.103Z,46.84
2018-06-01T13:45:56.127Z,46.73
2018-06-01T13:47:06.147Z,48.95
2018-06-01T13:48:15.916Z,48.74
2018-06-01T13:49:25.934Z,50.09
2018-06-01T13:50:35.720Z,51.03
2018-06-01T13:51:45.939Z,52.36
2018-06-01T13:52:55.968Z,53.13
2018-06-01T13:54:05.997Z,52.23
2018-06-01T13:55:15.484Z,52.65
2018-06-01T13:56:25.257Z,53.39
2018-06-01T13:57:35.280Z,53.78
2018-06-01T13:58:45.049Z,54.82
2018-06-01T13:59:55.079Z,55.49
2018-06-01T14:01:04.841Z,56.84
2018-06-01T14:02:14.340Z,55.3
2018-06-01T14:03:23.560Z,55.78
2018-06-01T14:04:33.582Z,55.88
2018-06-01T14:05:43.604Z,54.62
2018-06-01T14:06:53.481Z,56.74
2018-06-01T14:08:03.521Z,56.84
2018-06-01T14:09:13.276Z,56.94
2018-06-01T14:10:23.424Z,55.01
2018-06-01T14:11:33.181Z,55.13
2018-06-01T14:12:43.205Z,56.2
2018-06-01T14:13:52.962Z,56.2
2018-06-01T14:15:03.002Z,55.52
2018-06-01T14:16:12.492Z,54.36
2018-06-01T14:17:22.514Z,55.35
2018-06-01T14:18:32.267Z,54.84
2018-06-01T14:19:42.031Z,53.91
2018-06-01T14:20:52.061Z,52.94
2018-06-01T14:22:02.083Z,52.87
2018-06-01T14:23:11.569Z,52.29
2018-06-01T14:24:21.690Z,51.73
2018-06-01T14:25:31.442Z,51.18
2018-06-01T14:26:41.622Z,52.44
2018-06-01T14:27:51.712Z,52.14
2018-06-01T14:29:01.202Z,51.47
2018-06-01T14:30:10.695Z,51.01
2018-06-01T14:31:20.452Z,51.01
2018-06-01T14:32:29.938Z,49.97
2018-06-01T14:33:39.701Z,50.55
2018-06-01T14:34:49.466Z,49.41
2018-06-01T14:35:59.324Z,50.48
2018-06-01T14:37:09.090Z,50.38
2018-06-01T14:38:18.851Z,50.09
2018-06-01T14:39:28.617Z,49.51
2018-06-01T14:40:38.588Z,48.85
2018-06-01T14:41:48.981Z,47.81
2018-06-01T14:42:59.007Z,47.23
2018-06-01T14:44:08.500Z,46.19
2018-06-01T14:45:17.995Z,46.01
2018-06-01T14:46:27.750Z,45.43
2018-06-01T14:47:37.770Z,46.21
2018-06-01T14:48:47.528Z,46.28
2018-06-01T14:49:57.555Z,45.7
2018-06-01T14:51:07.053Z,45.21
2018-06-01T14:52:16.553Z,45.14
2018-06-01T14:53:26.617Z,45.62
2018-06-01T14:54:36.512Z,43.8
2018-06-01T14:55:46.542Z,42.61
2018-06-01T14:56:56.591Z,43.3
2018-06-01T14:58:06.634Z,43.4
2018-06-01T14:59:16.749Z,43.8
2018-06-01T15:00:26.784Z,42.93
2018-06-01T15:01:36.558Z,43.4
2018-06-01T15:02:46.410Z,42.91
2018-06-01T15:03:55.902Z,42.54
2018-06-01T15:05:05.664Z,42.64